Springfield, South Carolina
Current Conditions -  °F | °C
As of 1:15 PM on Friday 19 Dec 2014 (Local Time) from KBNL Reporting Station
Clear Clear  
Wind Chill: 61°   Ceiling: Unl
Heat Index: 61°   Visibility: NA
Dew Point: 39°   Wind: 0mph
Humidity: 45%   Direction: NA
Pressure: 30.12"   Gusts: NA
Location:  33.5°N, 81.28°W
Report Text: KBNL 191815Z AUTO 00000KT CLR 16/04 A3012 RMK AO2
Loading
Personal Weather Stations






























Interactive Weather Map New forecast layout! Learn more

10-Day Weather Forecast

Advertisements
Track Severe Weather on mobile